sensor_id;sensor_type;location;lat;lon;timestamp;P1;durP1;ratioP1;P2;durP2;ratioP2
7340;SDS011;6870;50.944;6.932;2022-07-17T00:01:00;7.50;;;3.50;;
7340;SDS011;6870;50.944;6.932;2022-07-17T00:03:28;14.50;;;4.13;;
7340;SDS011;6870;50.944;6.932;2022-07-17T00:05:58;9.80;;;4.00;;
7340;SDS011;6870;50.944;6.932;2022-07-17T00:08:26;13.03;;;3.70;;
7340;SDS011;6870;50.944;6.932;2022-07-17T00:10:58;5.33;;;2.97;;
7340;SDS011;6870;50.944;6.932;2022-07-17T00:13:27;8.07;;;3.50;;
7340;SDS011;6870;50.944;6.932;2022-07-17T00:15:55;8.60;;;3.03;;
7340;SDS011;6870;50.944;6.932;2022-07-17T00:18:24;9.63;;;3.70;;
7340;SDS011;6870;50.944;6.932;2022-07-17T00:20:53;9.80;;;3.50;;
7340;SDS011;6870;50.944;6.932;2022-07-17T00:23:23;6.63;;;2.97;;
7340;SDS011;6870;50.944;6.932;2022-07-17T00:25:51;9.63;;;3.00;;
7340;SDS011;6870;50.944;6.932;2022-07-17T00:28:20;8.03;;;2.60;;
7340;SDS011;6870;50.944;6.932;2022-07-17T00:30:48;8.77;;;3.10;;
7340;SDS011;6870;50.944;6.932;2022-07-17T00:33:17;9.30;;;2.50;;
7340;SDS011;6870;50.944;6.932;2022-07-17T00:35:45;10.27;;;2.90;;
7340;SDS011;6870;50.944;6.932;2022-07-17T00:38:14;9.33;;;3.20;;
7340;SDS011;6870;50.944;6.932;2022-07-17T00:40:46;8.27;;;3.17;;
7340;SDS011;6870;50.944;6.932;2022-07-17T00:43:14;10.93;;;3.60;;
7340;SDS011;6870;50.944;6.932;2022-07-17T00:45:44;7.67;;;2.80;;
7340;SDS011;6870;50.944;6.932;2022-07-17T00:48:12;5.80;;;3.93;;
7340;SDS011;6870;50.944;6.932;2022-07-17T00:50:41;12.83;;;3.10;;
7340;SDS011;6870;50.944;6.932;2022-07-17T00:53:10;4.73;;;3.10;;
7340;SDS011;6870;50.944;6.932;2022-07-17T00:55:39;10.73;;;2.77;;
7340;SDS011;6870;50.944;6.932;2022-07-17T00:58:12;10.90;;;2.97;;
7340;SDS011;6870;50.944;6.932;2022-07-17T01:00:47;9.70;;;2.50;;
7340;SDS011;6870;50.944;6.932;2022-07-17T01:03:18;10.87;;;3.43;;
7340;SDS011;6870;50.944;6.932;2022-07-17T01:05:49;8.40;;;2.70;;
7340;SDS011;6870;50.944;6.932;2022-07-17T01:08:18;9.97;;;3.57;;
7340;SDS011;6870;50.944;6.932;2022-07-17T01:10:47;6.73;;;3.13;;
7340;SDS011;6870;50.944;6.932;2022-07-17T01:13:17;9.17;;;2.73;;
7340;SDS011;6870;50.944;6.932;2022-07-17T01:15:46;8.83;;;3.00;;
7340;SDS011;6870;50.944;6.932;2022-07-17T01:18:15;6.00;;;2.40;;
7340;SDS011;6870;50.944;6.932;2022-07-17T01:20:44;17.40;;;3.90;;
7340;SDS011;6870;50.944;6.932;2022-07-17T01:23:17;8.10;;;2.50;;
7340;SDS011;6870;50.944;6.932;2022-07-17T01:25:46;9.47;;;2.90;;
7340;SDS011;6870;50.944;6.932;2022-07-17T01:28:15;6.60;;;3.20;;
7340;SDS011;6870;50.944;6.932;2022-07-17T01:30:47;15.07;;;2.97;;
7340;SDS011;6870;50.944;6.932;2022-07-17T01:33:18;8.83;;;3.27;;
7340;SDS011;6870;50.944;6.932;2022-07-17T01:35:49;6.40;;;2.40;;
7340;SDS011;6870;50.944;6.932;2022-07-17T01:38:19;8.17;;;3.00;;
7340;SDS011;6870;50.944;6.932;2022-07-17T01:40:48;9.23;;;3.03;;
7340;SDS011;6870;50.944;6.932;2022-07-17T01:43:17;18.50;;;3.07;;
7340;SDS011;6870;50.944;6.932;2022-07-17T01:45:46;12.23;;;3.57;;
7340;SDS011;6870;50.944;6.932;2022-07-17T01:48:22;8.10;;;2.83;;
7340;SDS011;6870;50.944;6.932;2022-07-17T01:50:52;10.90;;;3.00;;
7340;SDS011;6870;50.944;6.932;2022-07-17T01:53:21;7.87;;;2.80;;
7340;SDS011;6870;50.944;6.932;2022-07-17T01:55:49;8.67;;;3.10;;
7340;SDS011;6870;50.944;6.932;2022-07-17T01:58:18;10.43;;;3.40;;
7340;SDS011;6870;50.944;6.932;2022-07-17T02:00:46;5.93;;;2.60;;
7340;SDS011;6870;50.944;6.932;2022-07-17T02:03:14;12.63;;;3.33;;
7340;SDS011;6870;50.944;6.932;2022-07-17T02:05:42;6.73;;;2.93;;
7340;SDS011;6870;50.944;6.932;2022-07-17T02:08:11;14.17;;;2.90;;
7340;SDS011;6870;50.944;6.932;2022-07-17T02:10:40;6.83;;;2.63;;
7340;SDS011;6870;50.944;6.932;2022-07-17T02:13:09;8.43;;;3.10;;
7340;SDS011;6870;50.944;6.932;2022-07-17T02:15:37;7.40;;;3.30;;
7340;SDS011;6870;50.944;6.932;2022-07-17T02:18:06;4.67;;;2.17;;
7340;SDS011;6870;50.944;6.932;2022-07-17T02:20:34;6.93;;;2.73;;
7340;SDS011;6870;50.944;6.932;2022-07-17T02:23:03;14.43;;;2.83;;
7340;SDS011;6870;50.944;6.932;2022-07-17T02:25:31;11.23;;;2.47;;
7340;SDS011;6870;50.944;6.932;2022-07-17T02:28:00;9.03;;;3.13;;
7340;SDS011;6870;50.944;6.932;2022-07-17T02:30:28;5.20;;;2.70;;
7340;SDS011;6870;50.944;6.932;2022-07-17T02:32:56;6.77;;;2.90;;
7340;SDS011;6870;50.944;6.932;2022-07-17T02:35:25;5.83;;;3.10;;
7340;SDS011;6870;50.944;6.932;2022-07-17T02:37:53;7.30;;;2.40;;
7340;SDS011;6870;50.944;6.932;2022-07-17T02:40:21;7.17;;;3.20;;
7340;SDS011;6870;50.944;6.932;2022-07-17T02:42:49;6.60;;;2.83;;
7340;SDS011;6870;50.944;6.932;2022-07-17T02:45:18;9.53;;;3.40;;
7340;SDS011;6870;50.944;6.932;2022-07-17T02:47:51;9.00;;;3.23;;
7340;SDS011;6870;50.944;6.932;2022-07-17T02:50:20;6.77;;;2.20;;
7340;SDS011;6870;50.944;6.932;2022-07-17T02:52:49;5.27;;;2.70;;
7340;SDS011;6870;50.944;6.932;2022-07-17T02:55:17;8.57;;;2.77;;
7340;SDS011;6870;50.944;6.932;2022-07-17T02:57:46;7.87;;;2.73;;
7340;SDS011;6870;50.944;6.932;2022-07-17T03:00:15;12.07;;;2.77;;
7340;SDS011;6870;50.944;6.932;2022-07-17T03:02:46;6.13;;;2.43;;
7340;SDS011;6870;50.944;6.932;2022-07-17T03:05:15;7.40;;;2.80;;
7340;SDS011;6870;50.944;6.932;2022-07-17T03:07:44;10.50;;;3.37;;
7340;SDS011;6870;50.944;6.932;2022-07-17T03:10:13;11.70;;;3.30;;
7340;SDS011;6870;50.944;6.932;2022-07-17T03:12:42;8.73;;;2.40;;
7340;SDS011;6870;50.944;6.932;2022-07-17T03:15:11;8.63;;;3.40;;
7340;SDS011;6870;50.944;6.932;2022-07-17T03:17:39;6.60;;;2.67;;
7340;SDS011;6870;50.944;6.932;2022-07-17T03:20:10;8.20;;;1.80;;
7340;SDS011;6870;50.944;6.932;2022-07-17T03:22:38;9.00;;;2.43;;
7340;SDS011;6870;50.944;6.932;2022-07-17T03:25:07;8.37;;;2.57;;
7340;SDS011;6870;50.944;6.932;2022-07-17T03:27:36;9.07;;;2.77;;
7340;SDS011;6870;50.944;6.932;2022-07-17T03:30:06;4.70;;;2.40;;
7340;SDS011;6870;50.944;6.932;2022-07-17T03:32:35;9.27;;;2.90;;
7340;SDS011;6870;50.944;6.932;2022-07-17T03:35:03;6.80;;;2.33;;
7340;SDS011;6870;50.944;6.932;2022-07-17T03:37:34;11.10;;;2.40;;
7340;SDS011;6870;50.944;6.932;2022-07-17T03:40:04;13.93;;;2.13;;
7340;SDS011;6870;50.944;6.932;2022-07-17T03:42:34;5.60;;;2.00;;
7340;SDS011;6870;50.944;6.932;2022-07-17T03:45:02;6.40;;;2.53;;
7340;SDS011;6870;50.944;6.932;2022-07-17T03:47:31;4.20;;;1.87;;
7340;SDS011;6870;50.944;6.932;2022-07-17T03:49:59;6.20;;;2.20;;
7340;SDS011;6870;50.944;6.932;2022-07-17T03:52:27;9.60;;;3.33;;
7340;SDS011;6870;50.944;6.932;2022-07-17T03:54:57;6.00;;;2.37;;
7340;SDS011;6870;50.944;6.932;2022-07-17T03:57:25;7.20;;;2.60;;
7340;SDS011;6870;50.944;6.932;2022-07-17T03:59:53;2.83;;;2.00;;
7340;SDS011;6870;50.944;6.932;2022-07-17T04:02:22;7.27;;;2.37;;
7340;SDS011;6870;50.944;6.932;2022-07-17T04:04:50;9.00;;;2.13;;
7340;SDS011;6870;50.944;6.932;2022-07-17T04:07:18;5.17;;;2.60;;
7340;SDS011;6870;50.944;6.932;2022-07-17T04:09:58;4.47;;;1.90;;
7340;SDS011;6870;50.944;6.932;2022-07-17T04:12:26;8.77;;;2.70;;
7340;SDS011;6870;50.944;6.932;2022-07-17T04:14:55;9.03;;;2.27;;
7340;SDS011;6870;50.944;6.932;2022-07-17T04:17:23;4.50;;;2.30;;
7340;SDS011;6870;50.944;6.932;2022-07-17T04:19:52;4.13;;;1.70;;
7340;SDS011;6870;50.944;6.932;2022-07-17T04:22:20;5.33;;;2.10;;
7340;SDS011;6870;50.944;6.932;2022-07-17T04:24:48;6.27;;;2.17;;
7340;SDS011;6870;50.944;6.932;2022-07-17T04:27:18;3.90;;;2.20;;
7340;SDS011;6870;50.944;6.932;2022-07-17T04:29:46;2.80;;;2.00;;
7340;SDS011;6870;50.944;6.932;2022-07-17T04:32:14;8.10;;;2.40;;
7340;SDS011;6870;50.944;6.932;2022-07-17T04:34:43;9.67;;;2.70;;
7340;SDS011;6870;50.944;6.932;2022-07-17T04:37:11;8.80;;;2.20;;
7340;SDS011;6870;50.944;6.932;2022-07-17T04:39:39;5.40;;;1.90;;
7340;SDS011;6870;50.944;6.932;2022-07-17T04:42:07;8.83;;;2.77;;
7340;SDS011;6870;50.944;6.932;2022-07-17T04:44:36;5.40;;;2.40;;
7340;SDS011;6870;50.944;6.932;2022-07-17T04:47:04;3.67;;;1.70;;
7340;SDS011;6870;50.944;6.932;2022-07-17T04:49:33;6.00;;;2.07;;
7340;SDS011;6870;50.944;6.932;2022-07-17T04:52:01;4.50;;;1.73;;
7340;SDS011;6870;50.944;6.932;2022-07-17T04:54:29;5.00;;;1.90;;
7340;SDS011;6870;50.944;6.932;2022-07-17T04:56:57;5.77;;;2.10;;
7340;SDS011;6870;50.944;6.932;2022-07-17T04:59:25;3.97;;;2.00;;
7340;SDS011;6870;50.944;6.932;2022-07-17T05:01:54;6.80;;;2.80;;
7340;SDS011;6870;50.944;6.932;2022-07-17T05:04:22;3.43;;;2.00;;
7340;SDS011;6870;50.944;6.932;2022-07-17T05:06:54;6.73;;;2.20;;
7340;SDS011;6870;50.944;6.932;2022-07-17T05:09:22;3.83;;;1.87;;
7340;SDS011;6870;50.944;6.932;2022-07-17T05:11:50;6.00;;;1.77;;
7340;SDS011;6870;50.944;6.932;2022-07-17T05:14:18;3.10;;;1.83;;
7340;SDS011;6870;50.944;6.932;2022-07-17T05:16:46;3.83;;;1.73;;
7340;SDS011;6870;50.944;6.932;2022-07-17T05:19:16;8.10;;;2.30;;
7340;SDS011;6870;50.944;6.932;2022-07-17T05:21:44;5.23;;;1.87;;
7340;SDS011;6870;50.944;6.932;2022-07-17T05:24:12;6.20;;;2.03;;
7340;SDS011;6870;50.944;6.932;2022-07-17T05:26:40;4.60;;;1.83;;
7340;SDS011;6870;50.944;6.932;2022-07-17T05:29:08;2.10;;;1.77;;
7340;SDS011;6870;50.944;6.932;2022-07-17T05:31:36;4.83;;;2.30;;
7340;SDS011;6870;50.944;6.932;2022-07-17T05:34:05;3.57;;;1.67;;
7340;SDS011;6870;50.944;6.932;2022-07-17T05:36:34;4.90;;;1.80;;
7340;SDS011;6870;50.944;6.932;2022-07-17T05:39:02;4.83;;;2.17;;
7340;SDS011;6870;50.944;6.932;2022-07-17T05:41:31;3.87;;;1.50;;
7340;SDS011;6870;50.944;6.932;2022-07-17T05:43:59;8.37;;;2.03;;
7340;SDS011;6870;50.944;6.932;2022-07-17T05:46:27;4.90;;;2.23;;
7340;SDS011;6870;50.944;6.932;2022-07-17T05:48:56;3.23;;;1.57;;
7340;SDS011;6870;50.944;6.932;2022-07-17T05:51:24;4.53;;;1.77;;
7340;SDS011;6870;50.944;6.932;2022-07-17T05:53:54;3.70;;;1.37;;
7340;SDS011;6870;50.944;6.932;2022-07-17T05:56:26;7.00;;;2.10;;
7340;SDS011;6870;50.944;6.932;2022-07-17T05:58:54;4.27;;;1.50;;
7340;SDS011;6870;50.944;6.932;2022-07-17T06:01:22;5.30;;;2.00;;
7340;SDS011;6870;50.944;6.932;2022-07-17T06:03:50;4.33;;;2.03;;
7340;SDS011;6870;50.944;6.932;2022-07-17T06:06:18;3.87;;;1.83;;
7340;SDS011;6870;50.944;6.932;2022-07-17T06:08:47;2.43;;;1.43;;
7340;SDS011;6870;50.944;6.932;2022-07-17T06:11:16;4.47;;;1.53;;
7340;SDS011;6870;50.944;6.932;2022-07-17T06:13:52;14.70;;;2.67;;
7340;SDS011;6870;50.944;6.932;2022-07-17T06:16:21;5.63;;;1.97;;
7340;SDS011;6870;50.944;6.932;2022-07-17T06:18:49;2.50;;;1.67;;
7340;SDS011;6870;50.944;6.932;2022-07-17T06:21:18;6.97;;;2.03;;
7340;SDS011;6870;50.944;6.932;2022-07-17T06:23:46;4.80;;;2.17;;
7340;SDS011;6870;50.944;6.932;2022-07-17T06:26:14;7.23;;;2.30;;
7340;SDS011;6870;50.944;6.932;2022-07-17T06:28:44;12.87;;;2.67;;
7340;SDS011;6870;50.944;6.932;2022-07-17T06:31:12;8.97;;;2.00;;
7340;SDS011;6870;50.944;6.932;2022-07-17T06:33:41;9.70;;;2.20;;
7340;SDS011;6870;50.944;6.932;2022-07-17T06:36:19;3.70;;;1.73;;
7340;SDS011;6870;50.944;6.932;2022-07-17T06:38:58;4.20;;;2.30;;
7340;SDS011;6870;50.944;6.932;2022-07-17T06:41:28;8.33;;;2.03;;
7340;SDS011;6870;50.944;6.932;2022-07-17T06:43:56;4.50;;;1.90;;
7340;SDS011;6870;50.944;6.932;2022-07-17T06:46:24;4.00;;;1.73;;
7340;SDS011;6870;50.944;6.932;2022-07-17T06:48:52;4.00;;;1.60;;
7340;SDS011;6870;50.944;6.932;2022-07-17T06:51:20;4.27;;;1.67;;
7340;SDS011;6870;50.944;6.932;2022-07-17T06:53:48;6.50;;;1.80;;
7340;SDS011;6870;50.944;6.932;2022-07-17T06:56:16;3.67;;;1.20;;
7340;SDS011;6870;50.944;6.932;2022-07-17T06:58:46;5.77;;;1.80;;
7340;SDS011;6870;50.944;6.932;2022-07-17T07:01:14;4.90;;;2.10;;
7340;SDS011;6870;50.944;6.932;2022-07-17T07:03:42;6.63;;;1.50;;
7340;SDS011;6870;50.944;6.932;2022-07-17T07:06:10;9.00;;;2.07;;
7340;SDS011;6870;50.944;6.932;2022-07-17T07:08:39;10.23;;;2.50;;
7340;SDS011;6870;50.944;6.932;2022-07-17T07:11:07;3.57;;;2.00;;
7340;SDS011;6870;50.944;6.932;2022-07-17T07:13:35;4.93;;;2.00;;
7340;SDS011;6870;50.944;6.932;2022-07-17T07:16:05;4.27;;;1.87;;
7340;SDS011;6870;50.944;6.932;2022-07-17T07:18:33;4.60;;;1.83;;
7340;SDS011;6870;50.944;6.932;2022-07-17T07:21:01;8.93;;;2.17;;
7340;SDS011;6870;50.944;6.932;2022-07-17T07:23:30;5.90;;;1.70;;
7340;SDS011;6870;50.944;6.932;2022-07-17T07:25:58;5.27;;;2.40;;
7340;SDS011;6870;50.944;6.932;2022-07-17T07:28:27;7.37;;;2.57;;
7340;SDS011;6870;50.944;6.932;2022-07-17T07:30:55;6.50;;;2.20;;
7340;SDS011;6870;50.944;6.932;2022-07-17T07:33:24;8.00;;;1.97;;
7340;SDS011;6870;50.944;6.932;2022-07-17T07:35:52;13.07;;;2.50;;
7340;SDS011;6870;50.944;6.932;2022-07-17T07:38:20;5.07;;;1.53;;
7340;SDS011;6870;50.944;6.932;2022-07-17T07:40:48;6.93;;;2.40;;
7340;SDS011;6870;50.944;6.932;2022-07-17T07:43:17;2.93;;;2.07;;
7340;SDS011;6870;50.944;6.932;2022-07-17T07:45:45;6.37;;;2.37;;
7340;SDS011;6870;50.944;6.932;2022-07-17T07:48:13;5.97;;;1.70;;
7340;SDS011;6870;50.944;6.932;2022-07-17T07:50:42;4.80;;;1.70;;
7340;SDS011;6870;50.944;6.932;2022-07-17T07:53:11;4.27;;;1.73;;
7340;SDS011;6870;50.944;6.932;2022-07-17T07:55:39;4.17;;;2.10;;
7340;SDS011;6870;50.944;6.932;2022-07-17T07:58:08;4.63;;;1.97;;
7340;SDS011;6870;50.944;6.932;2022-07-17T08:00:38;9.90;;;2.20;;
7340;SDS011;6870;50.944;6.932;2022-07-17T08:03:07;4.70;;;1.97;;
7340;SDS011;6870;50.944;6.932;2022-07-17T08:05:35;4.20;;;1.90;;
7340;SDS011;6870;50.944;6.932;2022-07-17T08:08:05;7.33;;;2.70;;
7340;SDS011;6870;50.944;6.932;2022-07-17T08:10:34;6.47;;;2.20;;
7340;SDS011;6870;50.944;6.932;2022-07-17T08:13:02;6.97;;;1.73;;
7340;SDS011;6870;50.944;6.932;2022-07-17T08:15:30;9.23;;;1.93;;
7340;SDS011;6870;50.944;6.932;2022-07-17T08:17:58;5.23;;;1.63;;
7340;SDS011;6870;50.944;6.932;2022-07-17T08:20:27;9.00;;;2.20;;
7340;SDS011;6870;50.944;6.932;2022-07-17T08:22:55;7.00;;;1.90;;
7340;SDS011;6870;50.944;6.932;2022-07-17T08:25:33;6.23;;;2.50;;
7340;SDS011;6870;50.944;6.932;2022-07-17T08:28:03;8.60;;;2.43;;
7340;SDS011;6870;50.944;6.932;2022-07-17T08:30:32;11.43;;;2.33;;
7340;SDS011;6870;50.944;6.932;2022-07-17T08:33:02;4.80;;;2.60;;
7340;SDS011;6870;50.944;6.932;2022-07-17T08:35:32;8.33;;;2.40;;
7340;SDS011;6870;50.944;6.932;2022-07-17T08:38:00;5.67;;;2.30;;
7340;SDS011;6870;50.944;6.932;2022-07-17T08:40:30;6.40;;;1.60;;
7340;SDS011;6870;50.944;6.932;2022-07-17T08:43:02;3.23;;;1.57;;
7340;SDS011;6870;50.944;6.932;2022-07-17T08:45:32;2.63;;;1.60;;
7340;SDS011;6870;50.944;6.932;2022-07-17T08:48:01;3.67;;;2.10;;
7340;SDS011;6870;50.944;6.932;2022-07-17T08:50:30;4.40;;;2.33;;
7340;SDS011;6870;50.944;6.932;2022-07-17T08:53:03;5.40;;;2.10;;
7340;SDS011;6870;50.944;6.932;2022-07-17T08:55:31;4.80;;;2.07;;
7340;SDS011;6870;50.944;6.932;2022-07-17T08:58:01;3.00;;;1.63;;
7340;SDS011;6870;50.944;6.932;2022-07-17T09:00:30;5.40;;;2.23;;
7340;SDS011;6870;50.944;6.932;2022-07-17T09:02:59;5.80;;;1.97;;
7340;SDS011;6870;50.944;6.932;2022-07-17T09:05:31;3.57;;;1.20;;
7340;SDS011;6870;50.944;6.932;2022-07-17T09:08:03;3.20;;;1.40;;
7340;SDS011;6870;50.944;6.932;2022-07-17T09:10:35;3.40;;;1.50;;
7340;SDS011;6870;50.944;6.932;2022-07-17T09:13:14;3.43;;;1.40;;
7340;SDS011;6870;50.944;6.932;2022-07-17T09:15:45;3.43;;;1.53;;
7340;SDS011;6870;50.944;6.932;2022-07-17T09:18:15;6.97;;;2.27;;
7340;SDS011;6870;50.944;6.932;2022-07-17T09:20:45;5.50;;;2.70;;
7340;SDS011;6870;50.944;6.932;2022-07-17T09:23:17;6.37;;;2.17;;
7340;SDS011;6870;50.944;6.932;2022-07-17T09:25:48;12.00;;;2.37;;
7340;SDS011;6870;50.944;6.932;2022-07-17T09:28:19;5.87;;;2.07;;
7340;SDS011;6870;50.944;6.932;2022-07-17T09:30:48;5.73;;;2.60;;
7340;SDS011;6870;50.944;6.932;2022-07-17T09:33:20;3.00;;;2.03;;
7340;SDS011;6870;50.944;6.932;2022-07-17T09:35:51;8.40;;;1.83;;
7340;SDS011;6870;50.944;6.932;2022-07-17T09:38:28;7.73;;;2.17;;
7340;SDS011;6870;50.944;6.932;2022-07-17T09:43:48;10.90;;;2.17;;
7340;SDS011;6870;50.944;6.932;2022-07-17T09:46:19;3.40;;;1.50;;
7340;SDS011;6870;50.944;6.932;2022-07-17T09:48:50;3.87;;;1.93;;
7340;SDS011;6870;50.944;6.932;2022-07-17T09:51:21;7.13;;;1.63;;
7340;SDS011;6870;50.944;6.932;2022-07-17T09:53:52;7.17;;;1.67;;
7340;SDS011;6870;50.944;6.932;2022-07-17T09:56:24;10.80;;;1.80;;
7340;SDS011;6870;50.944;6.932;2022-07-17T09:58:55;2.10;;;1.50;;
7340;SDS011;6870;50.944;6.932;2022-07-17T10:01:29;4.03;;;1.67;;
7340;SDS011;6870;50.944;6.932;2022-07-17T10:04:00;9.27;;;1.73;;
7340;SDS011;6870;50.944;6.932;2022-07-17T10:06:29;4.70;;;1.80;;
7340;SDS011;6870;50.944;6.932;2022-07-17T10:08:59;9.80;;;1.57;;
7340;SDS011;6870;50.944;6.932;2022-07-17T10:11:30;6.93;;;2.33;;
7340;SDS011;6870;50.944;6.932;2022-07-17T10:14:02;6.80;;;2.40;;
7340;SDS011;6870;50.944;6.932;2022-07-17T10:16:33;5.20;;;1.87;;
7340;SDS011;6870;50.944;6.932;2022-07-17T10:19:03;8.03;;;1.93;;
7340;SDS011;6870;50.944;6.932;2022-07-17T10:21:51;18.00;;;2.90;;
7340;SDS011;6870;50.944;6.932;2022-07-17T10:24:22;10.83;;;2.40;;
7340;SDS011;6870;50.944;6.932;2022-07-17T10:26:53;7.47;;;2.17;;
7340;SDS011;6870;50.944;6.932;2022-07-17T10:29:25;7.30;;;2.37;;
7340;SDS011;6870;50.944;6.932;2022-07-17T10:32:00;14.60;;;2.50;;
7340;SDS011;6870;50.944;6.932;2022-07-17T10:34:38;9.43;;;2.03;;
7340;SDS011;6870;50.944;6.932;2022-07-17T10:37:16;8.33;;;2.73;;
7340;SDS011;6870;50.944;6.932;2022-07-17T10:39:57;12.40;;;2.30;;
7340;SDS011;6870;50.944;6.932;2022-07-17T10:42:44;4.03;;;1.43;;
7340;SDS011;6870;50.944;6.932;2022-07-17T10:45:15;13.10;;;2.53;;
7340;SDS011;6870;50.944;6.932;2022-07-17T10:47:45;6.23;;;1.40;;
7340;SDS011;6870;50.944;6.932;2022-07-17T10:50:18;9.30;;;1.80;;
7340;SDS011;6870;50.944;6.932;2022-07-17T10:52:59;7.90;;;1.87;;
7340;SDS011;6870;50.944;6.932;2022-07-17T10:55:36;4.73;;;1.73;;
7340;SDS011;6870;50.944;6.932;2022-07-17T10:58:21;3.07;;;1.60;;
7340;SDS011;6870;50.944;6.932;2022-07-17T11:00:56;5.73;;;1.90;;
7340;SDS011;6870;50.944;6.932;2022-07-17T11:03:27;3.13;;;1.43;;
7340;SDS011;6870;50.944;6.932;2022-07-17T11:06:05;9.63;;;2.20;;
7340;SDS011;6870;50.944;6.932;2022-07-17T11:08:45;4.70;;;2.03;;
7340;SDS011;6870;50.944;6.932;2022-07-17T11:11:15;4.33;;;1.40;;
7340;SDS011;6870;50.944;6.932;2022-07-17T11:14:06;6.77;;;1.90;;
7340;SDS011;6870;50.944;6.932;2022-07-17T11:16:35;5.27;;;1.50;;
7340;SDS011;6870;50.944;6.932;2022-07-17T11:19:04;5.27;;;2.40;;
7340;SDS011;6870;50.944;6.932;2022-07-17T11:21:32;2.60;;;1.63;;
7340;SDS011;6870;50.944;6.932;2022-07-17T11:24:01;9.57;;;2.00;;
7340;SDS011;6870;50.944;6.932;2022-07-17T11:26:30;2.23;;;1.50;;
7340;SDS011;6870;50.944;6.932;2022-07-17T11:28:59;4.40;;;1.87;;
7340;SDS011;6870;50.944;6.932;2022-07-17T11:31:28;2.60;;;1.17;;
7340;SDS011;6870;50.944;6.932;2022-07-17T11:33:58;12.20;;;2.43;;
7340;SDS011;6870;50.944;6.932;2022-07-17T11:36:29;8.10;;;1.77;;
7340;SDS011;6870;50.944;6.932;2022-07-17T11:39:02;10.00;;;1.67;;
7340;SDS011;6870;50.944;6.932;2022-07-17T11:41:33;7.07;;;2.43;;
7340;SDS011;6870;50.944;6.932;2022-07-17T11:44:05;16.63;;;2.57;;
7340;SDS011;6870;50.944;6.932;2022-07-17T11:46:36;19.60;;;6.63;;
7340;SDS011;6870;50.944;6.932;2022-07-17T11:49:07;20.97;;;4.97;;
7340;SDS011;6870;50.944;6.932;2022-07-17T11:51:37;12.83;;;3.47;;
7340;SDS011;6870;50.944;6.932;2022-07-17T11:54:08;12.80;;;4.17;;
7340;SDS011;6870;50.944;6.932;2022-07-17T11:56:38;6.70;;;2.40;;
7340;SDS011;6870;50.944;6.932;2022-07-17T11:59:08;7.53;;;3.17;;
7340;SDS011;6870;50.944;6.932;2022-07-17T12:01:38;8.20;;;2.90;;
7340;SDS011;6870;50.944;6.932;2022-07-17T12:04:08;8.40;;;2.83;;
7340;SDS011;6870;50.944;6.932;2022-07-17T12:06:43;7.83;;;3.10;;
7340;SDS011;6870;50.944;6.932;2022-07-17T12:09:13;7.43;;;3.10;;
7340;SDS011;6870;50.944;6.932;2022-07-17T12:11:48;8.60;;;2.40;;
7340;SDS011;6870;50.944;6.932;2022-07-17T12:14:19;5.53;;;2.27;;
7340;SDS011;6870;50.944;6.932;2022-07-17T12:16:47;7.43;;;2.70;;
7340;SDS011;6870;50.944;6.932;2022-07-17T12:19:16;4.97;;;3.23;;
7340;SDS011;6870;50.944;6.932;2022-07-17T12:21:47;5.53;;;2.60;;
7340;SDS011;6870;50.944;6.932;2022-07-17T12:24:21;3.87;;;2.03;;
7340;SDS011;6870;50.944;6.932;2022-07-17T12:26:53;8.93;;;2.80;;
7340;SDS011;6870;50.944;6.932;2022-07-17T12:29:25;7.60;;;2.00;;
7340;SDS011;6870;50.944;6.932;2022-07-17T12:32:01;5.80;;;2.37;;
7340;SDS011;6870;50.944;6.932;2022-07-17T12:34:35;10.33;;;3.03;;
7340;SDS011;6870;50.944;6.932;2022-07-17T12:37:11;5.17;;;2.20;;
7340;SDS011;6870;50.944;6.932;2022-07-17T12:39:39;10.03;;;2.00;;
7340;SDS011;6870;50.944;6.932;2022-07-17T12:42:07;5.53;;;1.80;;
7340;SDS011;6870;50.944;6.932;2022-07-17T12:44:37;3.10;;;1.50;;
7340;SDS011;6870;50.944;6.932;2022-07-17T12:47:05;2.90;;;1.70;;
7340;SDS011;6870;50.944;6.932;2022-07-17T12:49:33;6.53;;;2.83;;
7340;SDS011;6870;50.944;6.932;2022-07-17T12:52:02;5.53;;;1.80;;
7340;SDS011;6870;50.944;6.932;2022-07-17T12:54:31;2.93;;;1.43;;
7340;SDS011;6870;50.944;6.932;2022-07-17T12:56:59;2.70;;;1.57;;
7340;SDS011;6870;50.944;6.932;2022-07-17T12:59:27;2.90;;;1.50;;
7340;SDS011;6870;50.944;6.932;2022-07-17T13:01:57;4.00;;;1.40;;
7340;SDS011;6870;50.944;6.932;2022-07-17T13:04:26;5.40;;;1.73;;
7340;SDS011;6870;50.944;6.932;2022-07-17T13:06:54;3.20;;;1.77;;
7340;SDS011;6870;50.944;6.932;2022-07-17T13:09:22;3.90;;;1.37;;
7340;SDS011;6870;50.944;6.932;2022-07-17T13:11:51;2.70;;;1.47;;
7340;SDS011;6870;50.944;6.932;2022-07-17T13:14:19;3.10;;;1.30;;
7340;SDS011;6870;50.944;6.932;2022-07-17T13:16:47;2.97;;;1.40;;
7340;SDS011;6870;50.944;6.932;2022-07-17T13:19:17;3.53;;;1.43;;
7340;SDS011;6870;50.944;6.932;2022-07-17T13:21:45;4.23;;;1.90;;
7340;SDS011;6870;50.944;6.932;2022-07-17T13:24:13;3.37;;;1.57;;
7340;SDS011;6870;50.944;6.932;2022-07-17T13:26:43;4.53;;;1.30;;
7340;SDS011;6870;50.944;6.932;2022-07-17T13:29:11;2.60;;;1.30;;
7340;SDS011;6870;50.944;6.932;2022-07-17T13:31:42;2.37;;;1.57;;
7340;SDS011;6870;50.944;6.932;2022-07-17T13:34:11;3.23;;;1.53;;
7340;SDS011;6870;50.944;6.932;2022-07-17T13:36:40;7.80;;;2.17;;
7340;SDS011;6870;50.944;6.932;2022-07-17T13:39:09;5.30;;;1.90;;
7340;SDS011;6870;50.944;6.932;2022-07-17T13:41:37;3.50;;;1.77;;
7340;SDS011;6870;50.944;6.932;2022-07-17T13:44:05;4.23;;;2.40;;
7340;SDS011;6870;50.944;6.932;2022-07-17T13:46:34;3.80;;;1.90;;
7340;SDS011;6870;50.944;6.932;2022-07-17T13:49:03;5.70;;;2.10;;
7340;SDS011;6870;50.944;6.932;2022-07-17T13:51:31;2.30;;;1.40;;
7340;SDS011;6870;50.944;6.932;2022-07-17T13:54:02;2.97;;;1.67;;
7340;SDS011;6870;50.944;6.932;2022-07-17T13:56:30;4.67;;;1.77;;
7340;SDS011;6870;50.944;6.932;2022-07-17T13:58:58;2.50;;;1.47;;
7340;SDS011;6870;50.944;6.932;2022-07-17T14:01:26;2.27;;;1.60;;
7340;SDS011;6870;50.944;6.932;2022-07-17T14:03:55;2.33;;;1.60;;
7340;SDS011;6870;50.944;6.932;2022-07-17T14:06:23;2.57;;;1.50;;
7340;SDS011;6870;50.944;6.932;2022-07-17T14:08:52;5.10;;;1.93;;
7340;SDS011;6870;50.944;6.932;2022-07-17T14:11:21;3.50;;;1.57;;
7340;SDS011;6870;50.944;6.932;2022-07-17T14:13:50;2.73;;;1.80;;
7340;SDS011;6870;50.944;6.932;2022-07-17T14:16:18;2.13;;;1.50;;
7340;SDS011;6870;50.944;6.932;2022-07-17T14:18:46;3.80;;;1.77;;
7340;SDS011;6870;50.944;6.932;2022-07-17T14:21:31;4.43;;;1.47;;
7340;SDS011;6870;50.944;6.932;2022-07-17T14:24:02;3.10;;;1.67;;
7340;SDS011;6870;50.944;6.932;2022-07-17T14:26:33;3.83;;;1.83;;
7340;SDS011;6870;50.944;6.932;2022-07-17T14:29:02;3.13;;;1.80;;
7340;SDS011;6870;50.944;6.932;2022-07-17T14:31:31;2.00;;;1.30;;
7340;SDS011;6870;50.944;6.932;2022-07-17T14:34:08;2.40;;;1.20;;
7340;SDS011;6870;50.944;6.932;2022-07-17T14:36:36;2.67;;;1.50;;
7340;SDS011;6870;50.944;6.932;2022-07-17T14:39:05;2.57;;;1.50;;
7340;SDS011;6870;50.944;6.932;2022-07-17T14:41:34;2.20;;;1.90;;
7340;SDS011;6870;50.944;6.932;2022-07-17T14:44:02;2.20;;;1.90;;
7340;SDS011;6870;50.944;6.932;2022-07-17T14:46:31;4.50;;;1.90;;
7340;SDS011;6870;50.944;6.932;2022-07-17T14:48:59;2.37;;;1.70;;
7340;SDS011;6870;50.944;6.932;2022-07-17T14:51:27;2.53;;;1.73;;
7340;SDS011;6870;50.944;6.932;2022-07-17T14:53:56;3.10;;;2.40;;
7340;SDS011;6870;50.944;6.932;2022-07-17T14:56:24;2.50;;;2.30;;
7340;SDS011;6870;50.944;6.932;2022-07-17T14:58:54;4.37;;;2.53;;
7340;SDS011;6870;50.944;6.932;2022-07-17T15:01:22;3.83;;;2.60;;
7340;SDS011;6870;50.944;6.932;2022-07-17T15:03:50;6.20;;;5.10;;
7340;SDS011;6870;50.944;6.932;2022-07-17T15:06:18;10.40;;;9.23;;
7340;SDS011;6870;50.944;6.932;2022-07-17T15:08:47;6.43;;;5.73;;
7340;SDS011;6870;50.944;6.932;2022-07-17T15:11:15;5.30;;;4.77;;
7340;SDS011;6870;50.944;6.932;2022-07-17T15:13:43;5.17;;;4.70;;
7340;SDS011;6870;50.944;6.932;2022-07-17T15:16:13;5.17;;;4.27;;
7340;SDS011;6870;50.944;6.932;2022-07-17T15:18:41;7.17;;;3.27;;
7340;SDS011;6870;50.944;6.932;2022-07-17T15:21:09;4.47;;;3.57;;
7340;SDS011;6870;50.944;6.932;2022-07-17T15:23:57;7.33;;;3.43;;
7340;SDS011;6870;50.944;6.932;2022-07-17T15:26:26;4.67;;;3.90;;
7340;SDS011;6870;50.944;6.932;2022-07-17T15:28:54;5.53;;;2.80;;
7340;SDS011;6870;50.944;6.932;2022-07-17T15:31:24;5.40;;;2.50;;